createdAt,value
2018-03-19T00:00:11.024Z,0.00
2018-03-19T00:02:05.306Z,0.00
2018-03-19T00:03:05.284Z,0.00
2018-03-19T00:04:58.605Z,0.00
2018-03-19T00:05:58.536Z,0.00
2018-03-19T00:07:51.875Z,0.00
2018-03-19T00:08:51.829Z,0.00
2018-03-19T00:10:45.174Z,0.00
2018-03-19T00:11:45.106Z,0.00
2018-03-19T00:13:39.392Z,0.00
2018-03-19T00:14:39.338Z,0.00
2018-03-19T00:16:32.671Z,0.00
2018-03-19T00:17:32.595Z,0.00
2018-03-19T00:19:25.909Z,0.00
2018-03-19T00:20:25.890Z,0.00
2018-03-19T00:22:19.178Z,0.00
2018-03-19T00:23:19.110Z,0.00
2018-03-19T00:25:12.635Z,0.00
2018-03-19T00:26:12.457Z,0.00
2018-03-19T00:28:05.776Z,0.00
2018-03-19T00:29:05.735Z,0.00
2018-03-19T00:30:59.021Z,0.00
2018-03-19T00:31:58.956Z,0.00
2018-03-19T00:33:52.252Z,0.00
2018-03-19T00:34:52.211Z,0.00
2018-03-19T00:36:45.530Z,0.00
2018-03-19T00:37:45.466Z,0.00
2018-03-19T00:39:38.798Z,0.00
2018-03-19T00:40:38.735Z,0.00
2018-03-19T00:42:32.138Z,0.00
2018-03-19T00:43:32.061Z,0.00
2018-03-19T00:45:25.362Z,0.00
2018-03-19T00:46:25.312Z,0.00
2018-03-19T00:48:18.622Z,0.00
2018-03-19T00:49:18.558Z,0.00
2018-03-19T00:51:11.857Z,0.00
2018-03-19T00:52:11.823Z,0.00
2018-03-19T00:54:05.160Z,0.00
2018-03-19T00:55:05.083Z,0.00
2018-03-19T00:56:58.453Z,0.00
2018-03-19T00:57:58.332Z,0.00
2018-03-19T00:59:51.652Z,0.00
2018-03-19T01:00:51.572Z,0.00
2018-03-19T01:02:45.076Z,0.00
2018-03-19T01:03:45.102Z,0.00
2018-03-19T01:05:38.361Z,0.00
2018-03-19T01:06:38.287Z,0.00
2018-03-19T01:08:31.603Z,0.00
2018-03-19T01:09:31.529Z,0.00
2018-03-19T01:11:24.819Z,0.00
2018-03-19T01:12:24.781Z,0.00
2018-03-19T01:14:18.121Z,0.00
2018-03-19T01:15:18.026Z,0.00
2018-03-19T01:17:11.316Z,0.00
2018-03-19T01:18:11.268Z,0.00
2018-03-19T01:20:05.566Z,0.00
2018-03-19T01:21:05.511Z,0.00
2018-03-19T01:22:58.819Z,0.00
2018-03-19T01:23:58.767Z,0.00
2018-03-19T01:25:52.072Z,0.00
2018-03-19T01:26:52.014Z,0.00
2018-03-19T01:28:45.296Z,0.00
2018-03-19T01:29:45.261Z,0.00
2018-03-19T01:31:38.612Z,0.00
2018-03-19T01:32:38.522Z,0.00
2018-03-19T01:34:31.818Z,0.00
2018-03-19T01:35:31.767Z,0.00
2018-03-19T01:37:25.088Z,0.00
2018-03-19T01:38:25.016Z,0.00
2018-03-19T01:40:18.337Z,0.00
2018-03-19T01:41:18.262Z,0.00
2018-03-19T01:43:11.576Z,0.00
2018-03-19T01:44:11.528Z,0.00
2018-03-19T01:46:04.821Z,0.00
2018-03-19T01:47:04.772Z,0.00
2018-03-19T01:48:58.282Z,0.00
2018-03-19T01:49:58.162Z,0.00
2018-03-19T01:51:51.497Z,0.00
2018-03-19T01:52:51.439Z,0.00
2018-03-19T01:54:44.729Z,0.00
2018-03-19T01:55:44.671Z,0.00
2018-03-19T01:57:37.987Z,0.00
2018-03-19T01:58:37.941Z,0.00
2018-03-19T02:00:31.222Z,0.00
2018-03-19T02:01:31.252Z,0.00
2018-03-19T02:03:24.501Z,0.00
2018-03-19T02:04:24.433Z,0.00
2018-03-19T02:06:17.777Z,0.00
2018-03-19T02:07:17.729Z,0.00
2018-03-19T02:09:11.050Z,0.00
2018-03-19T02:10:11.008Z,0.00
2018-03-19T02:12:04.313Z,0.00
2018-03-19T02:13:04.231Z,0.00
2018-03-19T02:14:57.524Z,0.00
2018-03-19T02:15:57.476Z,0.00
2018-03-19T02:17:50.808Z,0.00
2018-03-19T02:18:50.734Z,0.00
2018-03-19T02:20:44.022Z,0.00
2018-03-19T02:21:43.980Z,0.00
2018-03-19T02:23:37.284Z,0.00
2018-03-19T02:24:37.224Z,0.00
2018-03-19T02:26:30.624Z,0.00
2018-03-19T02:27:30.501Z,0.00
2018-03-19T02:29:23.981Z,0.00
2018-03-19T02:30:23.742Z,0.00
2018-03-19T02:32:17.029Z,0.00
2018-03-19T02:33:16.984Z,0.00
2018-03-19T02:35:11.505Z,0.00
2018-03-19T02:36:11.428Z,0.00
2018-03-19T02:38:04.784Z,0.00
2018-03-19T02:39:04.663Z,0.00
2018-03-19T02:40:57.979Z,0.00
2018-03-19T02:41:57.912Z,0.00
2018-03-19T02:43:51.217Z,0.00
2018-03-19T02:44:51.167Z,0.00
2018-03-19T02:46:45.463Z,0.00
2018-03-19T02:47:45.422Z,0.00
2018-03-19T02:49:38.713Z,0.00
2018-03-19T02:50:38.638Z,0.00
2018-03-19T02:52:32.055Z,0.00
2018-03-19T02:53:31.879Z,0.00
2018-03-19T02:55:25.208Z,0.00
2018-03-19T02:56:25.133Z,0.00
2018-03-19T02:58:18.423Z,0.00
2018-03-19T02:59:18.409Z,0.00
2018-03-19T03:01:11.686Z,0.00
2018-03-19T03:02:11.623Z,0.00
2018-03-19T03:04:04.928Z,0.00
2018-03-19T03:05:04.875Z,0.00
2018-03-19T03:06:58.199Z,0.00
2018-03-19T03:07:58.169Z,0.00
2018-03-19T03:09:51.474Z,0.00
2018-03-19T03:10:51.368Z,0.00
2018-03-19T03:12:44.688Z,0.00
2018-03-19T03:13:44.624Z,0.00
2018-03-19T03:15:37.934Z,0.00
2018-03-19T03:16:37.884Z,0.00
2018-03-19T03:18:31.302Z,0.00
2018-03-19T03:19:31.128Z,0.00
2018-03-19T03:21:24.429Z,0.00
2018-03-19T03:22:24.369Z,0.00
2018-03-19T03:24:17.673Z,0.00
2018-03-19T03:25:17.625Z,0.00
2018-03-19T03:27:10.936Z,0.00
2018-03-19T03:28:10.872Z,0.00
2018-03-19T03:30:04.165Z,0.00
2018-03-19T03:31:04.116Z,0.00
2018-03-19T03:32:57.405Z,0.00
2018-03-19T03:33:57.360Z,0.00
2018-03-19T03:35:50.704Z,0.00
2018-03-19T03:36:50.641Z,0.00
2018-03-19T03:38:43.914Z,0.00
2018-03-19T03:39:43.879Z,0.00
2018-03-19T03:41:37.185Z,0.00
2018-03-19T03:42:37.117Z,0.00
2018-03-19T03:44:31.423Z,0.00
2018-03-19T03:45:31.383Z,0.00
2018-03-19T03:47:24.684Z,0.00
2018-03-19T03:48:24.621Z,0.00
2018-03-19T03:50:18.025Z,0.00
2018-03-19T03:51:17.868Z,0.00
2018-03-19T03:53:11.168Z,0.00
2018-03-19T03:54:11.108Z,0.00
2018-03-19T03:56:04.396Z,0.00
2018-03-19T03:57:04.364Z,0.00
2018-03-19T03:58:58.665Z,0.00
2018-03-19T03:59:58.586Z,0.00
2018-03-19T04:01:51.900Z,0.00
2018-03-19T04:02:51.860Z,0.00
2018-03-19T04:04:45.130Z,0.00
2018-03-19T04:05:45.084Z,0.00
2018-03-19T04:07:39.478Z,0.00
2018-03-19T04:08:39.363Z,0.00
2018-03-19T04:10:32.651Z,0.00
2018-03-19T04:11:32.667Z,0.00
2018-03-19T04:13:25.921Z,0.00
2018-03-19T04:14:25.873Z,0.00
2018-03-19T04:16:19.163Z,0.00
2018-03-19T04:17:19.126Z,0.00
2018-03-19T04:19:12.420Z,0.00
2018-03-19T04:20:12.454Z,0.00
2018-03-19T04:22:06.651Z,0.00
2018-03-19T04:23:06.619Z,0.00
2018-03-19T04:24:59.921Z,0.00
2018-03-19T04:25:59.865Z,0.00
2018-03-19T04:27:53.145Z,0.00
2018-03-19T04:28:53.100Z,0.00
2018-03-19T04:30:47.481Z,0.00
2018-03-19T04:31:47.369Z,0.00
2018-03-19T04:33:40.696Z,0.00
2018-03-19T04:34:40.605Z,0.00
2018-03-19T04:36:33.926Z,0.00
2018-03-19T04:37:33.859Z,0.00
2018-03-19T04:39:27.237Z,0.00
2018-03-19T04:40:27.094Z,0.00
2018-03-19T04:42:20.390Z,0.00
2018-03-19T04:43:20.356Z,0.00
2018-03-19T04:45:13.661Z,0.00
2018-03-19T04:46:13.595Z,0.00
2018-03-19T04:48:07.086Z,0.00
2018-03-19T04:49:06.946Z,0.00
2018-03-19T04:51:00.359Z,0.00
2018-03-19T04:52:00.195Z,0.00
2018-03-19T04:53:53.476Z,0.00
2018-03-19T04:54:53.426Z,0.00
2018-03-19T04:56:47.076Z,0.00
2018-03-19T04:57:46.735Z,0.00
2018-03-19T04:59:40.005Z,0.00
2018-03-19T05:00:40.046Z,0.00
2018-03-19T05:02:33.269Z,0.00
2018-03-19T05:03:33.209Z,0.00
2018-03-19T05:05:26.515Z,0.00
2018-03-19T05:06:26.454Z,0.00
2018-03-19T05:08:19.741Z,0.00
2018-03-19T05:09:19.696Z,0.00
2018-03-19T05:11:13.067Z,0.00
2018-03-19T05:12:12.953Z,0.00
2018-03-19T05:14:06.237Z,0.00
2018-03-19T05:15:06.211Z,0.00
2018-03-19T05:16:59.512Z,4.00
2018-03-19T05:17:59.446Z,0.00
2018-03-19T05:19:52.732Z,4.00
2018-03-19T05:20:52.682Z,4.00
2018-03-19T05:22:45.994Z,4.00
2018-03-19T05:23:45.936Z,4.00
2018-03-19T05:25:39.221Z,8.00
2018-03-19T05:26:39.175Z,8.00
2018-03-19T05:28:32.526Z,12.00
2018-03-19T05:29:32.437Z,12.00
2018-03-19T05:31:25.731Z,16.00
2018-03-19T05:32:25.711Z,20.00
2018-03-19T05:34:18.992Z,24.00
2018-03-19T05:35:18.935Z,28.00
2018-03-19T05:37:12.726Z,32.00
2018-03-19T05:38:12.185Z,36.00
2018-03-19T05:40:05.473Z,44.00
2018-03-19T05:41:05.418Z,48.00
2018-03-19T05:42:58.761Z,64.00
2018-03-19T05:43:58.655Z,68.00
2018-03-19T05:45:51.947Z,80.00
2018-03-19T05:46:51.906Z,84.00
2018-03-19T05:48:45.232Z,96.00
2018-03-19T05:49:45.142Z,96.00
2018-03-19T05:51:38.517Z,108.00
2018-03-19T05:52:38.418Z,112.00
2018-03-19T05:54:31.711Z,116.00
2018-03-19T05:55:31.653Z,112.00
2018-03-19T05:57:24.931Z,116.00
2018-03-19T05:58:24.881Z,116.00
2018-03-19T06:00:18.211Z,124.00
2018-03-19T06:01:18.133Z,128.00
2018-03-19T06:03:11.458Z,140.00
2018-03-19T06:04:11.377Z,144.00
2018-03-19T06:06:04.710Z,152.00
2018-03-19T06:07:04.646Z,156.00
2018-03-19T06:08:57.952Z,168.00
2018-03-19T06:09:57.893Z,172.00
2018-03-19T06:11:51.176Z,184.00
2018-03-19T06:12:51.261Z,188.00
2018-03-19T06:14:44.494Z,200.00
2018-03-19T06:15:44.377Z,208.00
2018-03-19T06:17:37.791Z,220.00
2018-03-19T06:18:37.622Z,224.00
2018-03-19T06:20:31.920Z,240.00
2018-03-19T06:21:31.858Z,248.00
2018-03-19T06:23:25.163Z,256.00
2018-03-19T06:24:25.111Z,264.00
2018-03-19T06:26:18.448Z,284.00
2018-03-19T06:27:18.362Z,292.00
2018-03-19T06:29:12.953Z,316.00
2018-03-19T06:30:12.613Z,328.00
2018-03-19T06:32:05.929Z,352.00
2018-03-19T06:33:05.872Z,368.00
2018-03-19T06:34:59.170Z,392.00
2018-03-19T06:35:59.125Z,404.00
2018-03-19T06:37:52.408Z,432.00
2018-03-19T06:38:52.354Z,448.00
2018-03-19T06:40:45.882Z,468.00
2018-03-19T06:41:45.708Z,488.00
2018-03-19T06:43:38.991Z,508.00
2018-03-19T06:44:38.958Z,516.00
2018-03-19T06:46:32.257Z,556.00
2018-03-19T06:47:32.196Z,572.00
2018-03-19T06:49:25.544Z,624.00
2018-03-19T06:50:25.500Z,656.00
2018-03-19T06:52:18.812Z,720.00
2018-03-19T06:53:18.742Z,764.00
2018-03-19T06:55:12.072Z,840.00
2018-03-19T06:56:12.025Z,860.00
2018-03-19T06:58:05.313Z,904.00
2018-03-19T06:59:05.249Z,944.00
2018-03-19T07:00:58.581Z,1008.00
2018-03-19T07:01:58.502Z,1020.00
2018-03-19T07:03:51.785Z,1024.00
2018-03-19T07:04:51.732Z,1024.00
2018-03-19T07:06:45.044Z,1048.00
2018-03-19T07:07:44.982Z,1064.00
2018-03-19T07:09:38.273Z,1084.00
2018-03-19T07:10:38.238Z,1104.00
2018-03-19T07:12:31.630Z,1144.00
2018-03-19T07:13:31.503Z,1156.00
2018-03-19T07:15:24.917Z,1200.00
2018-03-19T07:16:24.774Z,1208.00
2018-03-19T07:18:18.102Z,1224.00
2018-03-19T07:19:18.089Z,1248.00
2018-03-19T07:21:11.437Z,1296.00
2018-03-19T07:22:11.343Z,1308.00
2018-03-19T07:24:05.519Z,1324.00
2018-03-19T07:25:05.552Z,1332.00
2018-03-19T07:26:58.919Z,1392.00
2018-03-19T07:27:58.819Z,1392.00
2018-03-19T07:29:52.142Z,1384.00
2018-03-19T07:30:52.046Z,1400.00
2018-03-19T07:32:46.225Z,1460.00
2018-03-19T07:33:46.184Z,1504.00
2018-03-19T07:35:39.538Z,1556.00
2018-03-19T07:36:39.484Z,1572.00
2018-03-19T07:38:33.377Z,1608.00
2018-03-19T07:39:32.888Z,1640.00
2018-03-19T07:41:26.150Z,1728.00
2018-03-19T07:42:26.139Z,1780.00
2018-03-19T07:44:19.488Z,1896.00
2018-03-19T07:45:19.458Z,1912.00
2018-03-19T07:47:13.397Z,1884.00
2018-03-19T07:48:12.772Z,1888.00
2018-03-19T07:50:06.540Z,1948.00
2018-03-19T07:51:06.371Z,2004.00
2018-03-19T07:52:59.624Z,2116.00
2018-03-19T07:53:59.608Z,2128.00
2018-03-19T07:55:52.979Z,2152.00
2018-03-19T07:56:52.914Z,2140.00
2018-03-19T07:58:46.373Z,2176.00
2018-03-19T07:59:46.241Z,2196.00
2018-03-19T08:01:39.559Z,2272.00
2018-03-19T08:02:39.518Z,2340.00
2018-03-19T08:04:32.904Z,2400.00
2018-03-19T08:05:32.848Z,2464.00
2018-03-19T08:07:26.175Z,2648.00
2018-03-19T08:08:26.102Z,2736.00
2018-03-19T08:10:19.481Z,2772.00
2018-03-19T08:11:19.390Z,2776.00
2018-03-19T08:13:12.724Z,2780.00
2018-03-19T08:14:12.684Z,2772.00
2018-03-19T08:16:06.073Z,2732.00
2018-03-19T08:17:05.974Z,2720.00
2018-03-19T08:18:59.423Z,2708.00
2018-03-19T08:19:59.325Z,2748.00
2018-03-19T08:21:52.639Z,2940.00
2018-03-19T08:22:52.636Z,3072.00
2018-03-19T08:24:45.931Z,3292.00
2018-03-19T08:25:45.850Z,3384.00
2018-03-19T08:27:39.189Z,3464.00
2018-03-19T08:28:39.123Z,3480.00
2018-03-19T08:30:32.551Z,3460.00
2018-03-19T08:31:32.500Z,3396.00
2018-03-19T08:33:25.805Z,3188.00
2018-03-19T08:34:25.731Z,3124.00
2018-03-19T08:36:19.139Z,3104.00
2018-03-19T08:37:19.048Z,3144.00
2018-03-19T08:39:12.404Z,3280.00
2018-03-19T08:40:12.329Z,3352.00
2018-03-19T08:42:06.755Z,3420.00
2018-03-19T08:43:06.481Z,3428.00
2018-03-19T08:44:59.813Z,3532.00
2018-03-19T08:45:59.740Z,3572.00
2018-03-19T08:47:53.058Z,3628.00
2018-03-19T08:48:52.984Z,3684.00
2018-03-19T08:50:46.299Z,3912.00
2018-03-19T08:51:46.240Z,4012.00
2018-03-19T08:53:39.540Z,4108.00
2018-03-19T08:54:39.494Z,4160.00
2018-03-19T08:56:32.826Z,4128.00
2018-03-19T08:57:32.749Z,4032.00
2018-03-19T08:59:26.119Z,3844.00
2018-03-19T09:00:26.001Z,3788.00
2018-03-19T09:02:19.305Z,3784.00
2018-03-19T09:03:19.294Z,3768.00
2018-03-19T09:05:12.540Z,3668.00
2018-03-19T09:06:12.489Z,3640.00
2018-03-19T09:08:05.953Z,3600.00
2018-03-19T09:09:05.745Z,3620.00
2018-03-19T09:10:59.039Z,3748.00
2018-03-19T09:11:59.008Z,3788.00
2018-03-19T09:13:52.295Z,3856.00
2018-03-19T09:14:52.242Z,3928.00
2018-03-19T09:16:45.567Z,4224.00
2018-03-19T09:17:45.502Z,4348.00
2018-03-19T09:19:38.798Z,4616.00
2018-03-19T09:20:38.755Z,4748.00
2018-03-19T09:22:32.075Z,4908.00
2018-03-19T09:23:31.996Z,5040.00
2018-03-19T09:25:25.292Z,5304.00
2018-03-19T09:26:25.255Z,5460.00
2018-03-19T09:28:18.589Z,5628.00
2018-03-19T09:29:18.504Z,5664.00
2018-03-19T09:31:11.864Z,5728.00
2018-03-19T09:32:11.754Z,5720.00
2018-03-19T09:34:05.062Z,5612.00
2018-03-19T09:35:05.067Z,5516.00
2018-03-19T09:36:58.322Z,5272.00
2018-03-19T09:37:58.281Z,5168.00
2018-03-19T09:39:51.614Z,5128.00
2018-03-19T09:40:51.538Z,5252.00
2018-03-19T09:42:44.851Z,5268.00
2018-03-19T09:43:44.781Z,5200.00
2018-03-19T09:45:38.083Z,5024.00
2018-03-19T09:46:38.053Z,4912.00
2018-03-19T09:48:31.422Z,4820.00
2018-03-19T09:49:31.296Z,4864.00
2018-03-19T09:51:24.593Z,4992.00
2018-03-19T09:52:24.545Z,5064.00
2018-03-19T09:54:17.867Z,5180.00
2018-03-19T09:55:17.801Z,5272.00
2018-03-19T09:57:11.291Z,5332.00
2018-03-19T09:58:11.180Z,5428.00
2018-03-19T10:00:04.481Z,5300.00
2018-03-19T10:01:04.425Z,5324.00
2018-03-19T10:02:57.751Z,5840.00
2018-03-19T10:03:57.671Z,6124.00
2018-03-19T10:05:51.004Z,6176.00
2018-03-19T10:06:50.931Z,6604.00
2018-03-19T10:08:44.300Z,6520.00
2018-03-19T10:09:44.207Z,7304.00
2018-03-19T10:11:37.496Z,11280.00
2018-03-19T10:12:37.445Z,36960.00
2018-03-19T10:14:30.774Z,15300.00
2018-03-19T10:15:30.725Z,16812.00
2018-03-19T10:17:24.217Z,24064.00
2018-03-19T10:18:24.186Z,24096.00
2018-03-19T10:20:18.485Z,14192.00
2018-03-19T10:21:18.432Z,19712.00
2018-03-19T10:23:11.736Z,16988.00
2018-03-19T10:24:11.693Z,31712.00
2018-03-19T10:26:05.000Z,36768.00
2018-03-19T10:27:04.948Z,17728.00
2018-03-19T10:28:58.254Z,17696.00
2018-03-19T10:29:58.200Z,14688.00
2018-03-19T10:31:51.627Z,13636.00
2018-03-19T10:32:51.504Z,13316.00
2018-03-19T10:34:44.831Z,16912.00
2018-03-19T10:35:44.771Z,14568.00
2018-03-19T10:37:38.060Z,9484.00
2018-03-19T10:38:38.067Z,8772.00
2018-03-19T10:40:32.477Z,8200.00
2018-03-19T10:41:32.367Z,8388.00
2018-03-19T10:43:25.704Z,8752.00
2018-03-19T10:44:25.629Z,9696.00
2018-03-19T10:46:18.981Z,11756.00
2018-03-19T10:47:18.916Z,11516.00
2018-03-19T10:49:12.297Z,12756.00
2018-03-19T10:50:12.202Z,20448.00
2018-03-19T10:52:05.601Z,22976.00
2018-03-19T10:53:05.460Z,28768.00
2018-03-19T10:54:58.823Z,21024.00
2018-03-19T10:55:58.736Z,21632.00
2018-03-19T10:57:52.049Z,24672.00
2018-03-19T10:58:52.000Z,28160.00
2018-03-19T11:00:46.312Z,32096.00
2018-03-19T11:01:46.264Z,31488.00
2018-03-19T11:03:39.581Z,32096.00
2018-03-19T11:04:39.521Z,30304.00
2018-03-19T11:06:32.926Z,33248.00
2018-03-19T11:07:32.784Z,33760.00
2018-03-19T11:09:27.087Z,37088.00
2018-03-19T11:10:27.074Z,37568.00
2018-03-19T11:12:20.488Z,36192.00
2018-03-19T11:13:20.327Z,37056.00
2018-03-19T11:15:13.761Z,38112.00
2018-03-19T11:16:13.596Z,39040.00
2018-03-19T11:18:06.920Z,39744.00
2018-03-19T11:19:06.879Z,36320.00
2018-03-19T11:21:00.191Z,35840.00
2018-03-19T11:22:00.159Z,37088.00
2018-03-19T11:23:53.582Z,38976.00
2018-03-19T11:24:53.424Z,39072.00
2018-03-19T11:26:46.760Z,42240.00
2018-03-19T11:27:46.723Z,41120.00
2018-03-19T11:29:40.048Z,45056.00
2018-03-19T11:30:40.013Z,45504.00
2018-03-19T11:32:33.334Z,38880.00
2018-03-19T11:33:33.287Z,37376.00
2018-03-19T11:35:26.613Z,37344.00
2018-03-19T11:36:26.584Z,40448.00
2018-03-19T11:38:20.044Z,39648.00
2018-03-19T11:39:19.868Z,41152.00
2018-03-19T11:41:13.238Z,40928.00
2018-03-19T11:42:13.158Z,37888.00
2018-03-19T11:44:06.487Z,38528.00
2018-03-19T11:45:06.457Z,40224.00
2018-03-19T11:46:59.766Z,41056.00
2018-03-19T11:47:59.850Z,41600.00
2018-03-19T11:49:53.094Z,40576.00
2018-03-19T11:50:53.024Z,40288.00
2018-03-19T11:52:46.338Z,39296.00
2018-03-19T11:53:46.313Z,41632.00
2018-03-19T11:55:39.667Z,38304.00
2018-03-19T11:56:39.619Z,38240.00
2018-03-19T11:58:32.934Z,40960.00
2018-03-19T11:59:32.890Z,39488.00
2018-03-19T12:01:26.317Z,38528.00
2018-03-19T12:02:26.262Z,43776.00
2018-03-19T12:04:19.570Z,51904.00
2018-03-19T12:05:19.578Z,49152.00
2018-03-19T12:07:12.888Z,41312.00
2018-03-19T12:08:12.844Z,31296.00
2018-03-19T12:10:06.258Z,26464.00
2018-03-19T12:11:06.197Z,27200.00
2018-03-19T12:12:59.615Z,26656.00
2018-03-19T12:13:59.468Z,27200.00
2018-03-19T12:15:52.815Z,26720.00
2018-03-19T12:16:52.747Z,26688.00
2018-03-19T12:18:46.154Z,26688.00
2018-03-19T12:19:46.079Z,26848.00
2018-03-19T12:21:39.419Z,25984.00
2018-03-19T12:22:39.375Z,23424.00
2018-03-19T12:24:32.690Z,25696.00
2018-03-19T12:25:32.661Z,26624.00
2018-03-19T12:27:26.034Z,32576.00
2018-03-19T12:28:25.956Z,37344.00
2018-03-19T12:30:19.323Z,38176.00
2018-03-19T12:31:19.321Z,32704.00
2018-03-19T12:33:12.648Z,33184.00
2018-03-19T12:34:12.657Z,33952.00
2018-03-19T12:36:05.953Z,33920.00
2018-03-19T12:37:05.888Z,32960.00
2018-03-19T12:38:59.225Z,31392.00
2018-03-19T12:39:59.208Z,30464.00
2018-03-19T12:41:52.547Z,34912.00
2018-03-19T12:42:52.491Z,32480.00
2018-03-19T12:44:45.818Z,30720.00
2018-03-19T12:45:45.779Z,28768.00
2018-03-19T12:47:39.197Z,29856.00
2018-03-19T12:48:39.074Z,31712.00
2018-03-19T12:50:33.404Z,32928.00
2018-03-19T12:51:33.368Z,33760.00
2018-03-19T12:53:26.727Z,32032.00
2018-03-19T12:54:26.678Z,31584.00
2018-03-19T12:56:20.017Z,30720.00
2018-03-19T12:57:19.966Z,31200.00
2018-03-19T12:59:13.317Z,33120.00
2018-03-19T13:00:13.270Z,32640.00
2018-03-19T13:02:06.608Z,33984.00
2018-03-19T13:03:06.552Z,32128.00
2018-03-19T13:04:59.922Z,30688.00
2018-03-19T13:05:59.840Z,29984.00
2018-03-19T13:07:53.166Z,29152.00
2018-03-19T13:08:53.138Z,28256.00
2018-03-19T13:10:46.484Z,27360.00
2018-03-19T13:11:46.426Z,25536.00
2018-03-19T13:13:39.774Z,27328.00
2018-03-19T13:14:39.708Z,27360.00
2018-03-19T13:16:33.032Z,25792.00
2018-03-19T13:17:32.984Z,25728.00
2018-03-19T13:19:26.358Z,26432.00
2018-03-19T13:20:26.274Z,24896.00
2018-03-19T13:22:19.618Z,27808.00
2018-03-19T13:23:19.589Z,28832.00
2018-03-19T13:25:12.909Z,26336.00
2018-03-19T13:26:12.857Z,28160.00
2018-03-19T13:28:06.197Z,26592.00
2018-03-19T13:29:06.236Z,24032.00
2018-03-19T13:30:59.504Z,27136.00
2018-03-19T13:31:59.420Z,26304.00
2018-03-19T13:33:53.055Z,24160.00
2018-03-19T13:34:52.800Z,24992.00
2018-03-19T13:36:46.132Z,25216.00
2018-03-19T13:37:46.077Z,23296.00
2018-03-19T13:39:39.405Z,21568.00
2018-03-19T13:40:39.370Z,21536.00
2018-03-19T13:42:32.668Z,20384.00
2018-03-19T13:43:32.646Z,21056.00
2018-03-19T13:45:26.000Z,22560.00
2018-03-19T13:46:25.958Z,22080.00
2018-03-19T13:48:19.247Z,23744.00
2018-03-19T13:49:19.220Z,24768.00
2018-03-19T13:51:12.683Z,28096.00
2018-03-19T13:52:12.515Z,28544.00
2018-03-19T13:54:05.826Z,21856.00
2018-03-19T13:55:05.803Z,19040.00
2018-03-19T13:56:59.126Z,28224.00
2018-03-19T13:57:59.072Z,21440.00
2018-03-19T13:59:52.532Z,22976.00
2018-03-19T14:00:52.357Z,21344.00
2018-03-19T14:02:45.690Z,17344.00
2018-03-19T14:03:45.655Z,15476.00
2018-03-19T14:05:38.993Z,13032.00
2018-03-19T14:06:38.911Z,12068.00
2018-03-19T14:08:32.387Z,13652.00
2018-03-19T14:09:32.213Z,13640.00
2018-03-19T14:11:25.645Z,11716.00
2018-03-19T14:12:25.493Z,11376.00
2018-03-19T14:14:18.796Z,12464.00
2018-03-19T14:15:18.766Z,12444.00
2018-03-19T14:17:12.215Z,11932.00
2018-03-19T14:18:12.070Z,11728.00
2018-03-19T14:20:05.388Z,11900.00
2018-03-19T14:21:05.330Z,12172.00
2018-03-19T14:22:58.667Z,12328.00
2018-03-19T14:23:58.612Z,12180.00
2018-03-19T14:25:51.917Z,10628.00
2018-03-19T14:26:51.878Z,10444.00
2018-03-19T14:28:45.223Z,10276.00
2018-03-19T14:29:45.161Z,10200.00
2018-03-19T14:31:38.473Z,10940.00
2018-03-19T14:32:38.437Z,11008.00
2018-03-19T14:34:31.765Z,11232.00
2018-03-19T14:35:31.712Z,11092.00
2018-03-19T14:37:25.031Z,10924.00
2018-03-19T14:38:25.014Z,10868.00
2018-03-19T14:40:18.301Z,10856.00
2018-03-19T14:41:18.270Z,10816.00
2018-03-19T14:43:11.673Z,10224.00
2018-03-19T14:44:11.529Z,10580.00
2018-03-19T14:46:04.946Z,10652.00
2018-03-19T14:47:04.793Z,10664.00
2018-03-19T14:48:58.112Z,10348.00
2018-03-19T14:49:58.076Z,9888.00
2018-03-19T14:51:51.433Z,9792.00
2018-03-19T14:52:51.379Z,9512.00
2018-03-19T14:54:44.663Z,9700.00
2018-03-19T14:55:44.620Z,9728.00
2018-03-19T14:57:37.958Z,9276.00
2018-03-19T14:58:37.897Z,9360.00
2018-03-19T15:00:31.296Z,9536.00
2018-03-19T15:01:31.171Z,9628.00
2018-03-19T15:03:24.522Z,9352.00
2018-03-19T15:04:24.452Z,9276.00
2018-03-19T15:06:17.755Z,9136.00
2018-03-19T15:07:17.711Z,9076.00
2018-03-19T15:09:12.105Z,8740.00
2018-03-19T15:10:11.964Z,8488.00
2018-03-19T15:12:05.281Z,8256.00
2018-03-19T15:13:05.238Z,8080.00
2018-03-19T15:14:58.577Z,7756.00
2018-03-19T15:15:58.513Z,7296.00
2018-03-19T15:17:51.901Z,7032.00
2018-03-19T15:18:51.783Z,7352.00
2018-03-19T15:20:45.126Z,7192.00
2018-03-19T15:21:45.064Z,7204.00
2018-03-19T15:23:38.470Z,7328.00
2018-03-19T15:24:38.438Z,7680.00
2018-03-19T15:26:31.769Z,7656.00
2018-03-19T15:27:31.691Z,7472.00
2018-03-19T15:29:25.046Z,6912.00
2018-03-19T15:30:24.983Z,6736.00
2018-03-19T15:32:18.270Z,6496.00
2018-03-19T15:33:18.227Z,6812.00
2018-03-19T15:35:11.584Z,7056.00
2018-03-19T15:36:11.516Z,6820.00
2018-03-19T15:38:04.794Z,6836.00
2018-03-19T15:39:04.756Z,6920.00
2018-03-19T15:40:58.105Z,6396.00
2018-03-19T15:41:58.016Z,6348.00
2018-03-19T15:43:51.396Z,6104.00
2018-03-19T15:44:51.301Z,5936.00
2018-03-19T15:46:44.619Z,5892.00
2018-03-19T15:47:44.568Z,6456.00
2018-03-19T15:49:37.852Z,6420.00
2018-03-19T15:50:37.851Z,6508.00
2018-03-19T15:52:31.293Z,6408.00
2018-03-19T15:53:31.100Z,6228.00
2018-03-19T15:55:24.424Z,5884.00
2018-03-19T15:56:24.386Z,5736.00
2018-03-19T15:58:17.717Z,5628.00
2018-03-19T15:59:17.653Z,5668.00
2018-03-19T16:01:11.124Z,5584.00
2018-03-19T16:02:10.922Z,5656.00
2018-03-19T16:04:04.228Z,5572.00
2018-03-19T16:05:04.184Z,5500.00
2018-03-19T16:06:57.528Z,5468.00
2018-03-19T16:07:57.477Z,5416.00
2018-03-19T16:09:50.918Z,5312.00
2018-03-19T16:10:50.793Z,5232.00
2018-03-19T16:12:44.102Z,4976.00
2018-03-19T16:13:44.071Z,4848.00
2018-03-19T16:15:37.363Z,4656.00
2018-03-19T16:16:37.323Z,4608.00
2018-03-19T16:18:30.664Z,4516.00
2018-03-19T16:19:30.567Z,4436.00
2018-03-19T16:21:23.898Z,4264.00
2018-03-19T16:22:23.848Z,4204.00
2018-03-19T16:24:17.144Z,4084.00
2018-03-19T16:25:17.102Z,4004.00
2018-03-19T16:27:10.622Z,3908.00
2018-03-19T16:28:10.417Z,3836.00
2018-03-19T16:30:03.754Z,3668.00
2018-03-19T16:31:03.697Z,3584.00
2018-03-19T16:32:56.537Z,3452.00
2018-03-19T16:33:56.481Z,3408.00
2018-03-19T16:35:49.755Z,3356.00
2018-03-19T16:36:49.855Z,3296.00
2018-03-19T16:38:43.052Z,3148.00
2018-03-19T16:39:42.990Z,3072.00
2018-03-19T16:41:36.283Z,2972.00
2018-03-19T16:42:36.247Z,2900.00
2018-03-19T16:44:29.576Z,2768.00
2018-03-19T16:45:29.506Z,2696.00
2018-03-19T16:47:22.825Z,2572.00
2018-03-19T16:48:22.757Z,2480.00
2018-03-19T16:50:16.079Z,2340.00
2018-03-19T16:51:16.049Z,2260.00
2018-03-19T16:53:09.161Z,2124.00
2018-03-19T16:54:09.082Z,2052.00
2018-03-19T16:56:02.397Z,1980.00
2018-03-19T16:57:02.348Z,1928.00
2018-03-19T16:58:55.658Z,1800.00
2018-03-19T16:59:55.617Z,1708.00
2018-03-19T17:01:48.938Z,1528.00
2018-03-19T17:02:48.858Z,1428.00
2018-03-19T17:04:42.172Z,1284.00
2018-03-19T17:05:42.134Z,1220.00
2018-03-19T17:07:35.415Z,1120.00
2018-03-19T17:08:35.376Z,1068.00
2018-03-19T17:10:28.838Z,976.00
2018-03-19T17:11:28.640Z,932.00
2018-03-19T17:13:21.988Z,852.00
2018-03-19T17:14:21.880Z,812.00
2018-03-19T17:16:15.243Z,740.00
2018-03-19T17:17:15.139Z,704.00
2018-03-19T17:19:08.625Z,640.00
2018-03-19T17:20:08.488Z,608.00
2018-03-19T17:22:01.804Z,552.00
2018-03-19T17:23:01.756Z,524.00
2018-03-19T17:24:55.069Z,472.00
2018-03-19T17:25:55.009Z,448.00
2018-03-19T17:27:48.428Z,404.00
2018-03-19T17:28:48.269Z,380.00
2018-03-19T17:30:41.685Z,336.00
2018-03-19T17:31:41.554Z,316.00
2018-03-19T17:33:34.884Z,276.00
2018-03-19T17:34:34.813Z,260.00
2018-03-19T17:36:28.205Z,228.00
2018-03-19T17:37:28.119Z,208.00
2018-03-19T17:39:21.405Z,180.00
2018-03-19T17:40:21.344Z,164.00
2018-03-19T17:42:14.686Z,140.00
2018-03-19T17:43:14.599Z,128.00
2018-03-19T17:45:07.903Z,104.00
2018-03-19T17:46:07.847Z,96.00
2018-03-19T17:48:01.194Z,76.00
2018-03-19T17:49:01.122Z,68.00
2018-03-19T17:50:54.409Z,56.00
2018-03-19T17:51:54.357Z,48.00
2018-03-19T17:53:47.733Z,36.00
2018-03-19T17:54:47.659Z,32.00